sensor_id;sensor_type;location;lat;lon;timestamp;P1;durP1;ratioP1;P2;durP2;ratioP2
60853;SDS011;48554;50.766;2.900;2022-07-24T00:02:06;4.17;;;2.37;;
60853;SDS011;48554;50.766;2.900;2022-07-24T00:04:26;6.20;;;2.63;;
60853;SDS011;48554;50.766;2.900;2022-07-24T00:06:46;7.00;;;3.27;;
60853;SDS011;48554;50.766;2.900;2022-07-24T00:09:07;6.83;;;2.70;;
60853;SDS011;48554;50.766;2.900;2022-07-24T00:11:27;7.37;;;3.00;;
60853;SDS011;48554;50.766;2.900;2022-07-24T00:13:47;4.73;;;2.47;;
60853;SDS011;48554;50.766;2.900;2022-07-24T00:16:08;6.87;;;2.70;;
60853;SDS011;48554;50.766;2.900;2022-07-24T00:18:28;4.87;;;2.37;;
60853;SDS011;48554;50.766;2.900;2022-07-24T00:20:49;5.90;;;3.03;;
60853;SDS011;48554;50.766;2.900;2022-07-24T00:23:09;5.07;;;2.50;;
60853;SDS011;48554;50.766;2.900;2022-07-24T00:25:29;6.83;;;3.17;;
60853;SDS011;48554;50.766;2.900;2022-07-24T00:27:49;5.53;;;2.27;;
60853;SDS011;48554;50.766;2.900;2022-07-24T00:30:10;5.33;;;2.30;;
60853;SDS011;48554;50.766;2.900;2022-07-24T00:32:30;5.23;;;2.00;;
60853;SDS011;48554;50.766;2.900;2022-07-24T00:34:51;10.00;;;2.90;;
60853;SDS011;48554;50.766;2.900;2022-07-24T00:37:11;5.57;;;2.60;;
60853;SDS011;48554;50.766;2.900;2022-07-24T00:39:31;6.47;;;2.57;;
60853;SDS011;48554;50.766;2.900;2022-07-24T00:41:51;7.03;;;2.50;;
60853;SDS011;48554;50.766;2.900;2022-07-24T00:44:13;5.33;;;2.17;;
60853;SDS011;48554;50.766;2.900;2022-07-24T00:46:35;5.43;;;2.00;;
60853;SDS011;48554;50.766;2.900;2022-07-24T00:48:57;5.28;;;2.30;;
60853;SDS011;48554;50.766;2.900;2022-07-24T00:51:17;6.60;;;2.50;;
60853;SDS011;48554;50.766;2.900;2022-07-24T00:53:37;5.80;;;2.30;;
60853;SDS011;48554;50.766;2.900;2022-07-24T00:55:58;7.83;;;2.67;;
60853;SDS011;48554;50.766;2.900;2022-07-24T00:58:18;5.30;;;2.40;;
60853;SDS011;48554;50.766;2.900;2022-07-24T01:00:38;5.53;;;2.20;;
60853;SDS011;48554;50.766;2.900;2022-07-24T01:02:59;6.07;;;3.27;;
60853;SDS011;48554;50.766;2.900;2022-07-24T01:05:19;5.13;;;2.50;;
60853;SDS011;48554;50.766;2.900;2022-07-24T01:07:40;5.73;;;2.60;;
60853;SDS011;48554;50.766;2.900;2022-07-24T01:10:00;6.40;;;2.10;;
60853;SDS011;48554;50.766;2.900;2022-07-24T01:14:42;5.78;;;2.40;;
60853;SDS011;48554;50.766;2.900;2022-07-24T01:17:03;4.70;;;2.83;;
60853;SDS011;48554;50.766;2.900;2022-07-24T01:19:23;4.43;;;2.30;;
60853;SDS011;48554;50.766;2.900;2022-07-24T01:21:51;6.23;;;2.67;;
60853;SDS011;48554;50.766;2.900;2022-07-24T01:24:12;7.07;;;2.53;;
60853;SDS011;48554;50.766;2.900;2022-07-24T01:26:32;4.53;;;2.40;;
60853;SDS011;48554;50.766;2.900;2022-07-24T01:28:53;6.97;;;2.70;;
60853;SDS011;48554;50.766;2.900;2022-07-24T01:31:13;6.47;;;3.10;;
60853;SDS011;48554;50.766;2.900;2022-07-24T01:33:33;5.33;;;2.60;;
60853;SDS011;48554;50.766;2.900;2022-07-24T01:35:54;4.63;;;2.30;;
60853;SDS011;48554;50.766;2.900;2022-07-24T01:38:14;7.13;;;3.00;;
60853;SDS011;48554;50.766;2.900;2022-07-24T01:40:34;6.73;;;2.80;;
60853;SDS011;48554;50.766;2.900;2022-07-24T01:42:55;4.03;;;2.43;;
60853;SDS011;48554;50.766;2.900;2022-07-24T01:45:15;6.27;;;2.77;;
60853;SDS011;48554;50.766;2.900;2022-07-24T01:47:36;6.87;;;2.87;;
60853;SDS011;48554;50.766;2.900;2022-07-24T01:49:56;6.47;;;2.67;;
60853;SDS011;48554;50.766;2.900;2022-07-24T01:52:16;8.63;;;2.93;;
60853;SDS011;48554;50.766;2.900;2022-07-24T01:54:36;6.40;;;2.90;;
60853;SDS011;48554;50.766;2.900;2022-07-24T01:56:57;5.63;;;2.10;;
60853;SDS011;48554;50.766;2.900;2022-07-24T01:59:17;4.77;;;2.40;;
60853;SDS011;48554;50.766;2.900;2022-07-24T02:01:37;7.50;;;2.93;;
60853;SDS011;48554;50.766;2.900;2022-07-24T02:03:57;5.57;;;2.63;;
60853;SDS011;48554;50.766;2.900;2022-07-24T02:06:18;5.23;;;2.50;;
60853;SDS011;48554;50.766;2.900;2022-07-24T02:08:38;4.13;;;2.33;;
60853;SDS011;48554;50.766;2.900;2022-07-24T02:10:58;5.00;;;2.40;;
60853;SDS011;48554;50.766;2.900;2022-07-24T02:13:18;5.40;;;2.10;;
60853;SDS011;48554;50.766;2.900;2022-07-24T02:15:39;5.40;;;2.27;;
60853;SDS011;48554;50.766;2.900;2022-07-24T02:18:00;5.23;;;2.43;;
60853;SDS011;48554;50.766;2.900;2022-07-24T02:20:21;6.68;;;2.40;;
60853;SDS011;48554;50.766;2.900;2022-07-24T02:22:41;5.43;;;2.23;;
60853;SDS011;48554;50.766;2.900;2022-07-24T02:25:02;6.63;;;2.57;;
60853;SDS011;48554;50.766;2.900;2022-07-24T02:27:22;6.63;;;2.37;;
60853;SDS011;48554;50.766;2.900;2022-07-24T02:29:42;6.47;;;2.30;;
60853;SDS011;48554;50.766;2.900;2022-07-24T02:32:03;4.33;;;2.23;;
60853;SDS011;48554;50.766;2.900;2022-07-24T02:34:23;3.73;;;2.10;;
60853;SDS011;48554;50.766;2.900;2022-07-24T02:36:43;6.33;;;2.40;;
60853;SDS011;48554;50.766;2.900;2022-07-24T02:39:03;5.30;;;2.07;;
60853;SDS011;48554;50.766;2.900;2022-07-24T02:41:24;4.70;;;2.30;;
60853;SDS011;48554;50.766;2.900;2022-07-24T02:43:44;7.70;;;2.37;;
60853;SDS011;48554;50.766;2.900;2022-07-24T02:46:04;7.57;;;3.13;;
60853;SDS011;48554;50.766;2.900;2022-07-24T02:48:25;7.43;;;2.43;;
60853;SDS011;48554;50.766;2.900;2022-07-24T02:50:45;4.00;;;2.13;;
60853;SDS011;48554;50.766;2.900;2022-07-24T02:53:05;5.50;;;2.63;;
60853;SDS011;48554;50.766;2.900;2022-07-24T02:55:26;5.30;;;2.30;;
60853;SDS011;48554;50.766;2.900;2022-07-24T02:57:46;5.00;;;2.23;;
60853;SDS011;48554;50.766;2.900;2022-07-24T03:00:08;6.20;;;2.40;;
60853;SDS011;48554;50.766;2.900;2022-07-24T03:02:30;6.05;;;2.10;;
60853;SDS011;48554;50.766;2.900;2022-07-24T03:04:50;6.90;;;3.10;;
60853;SDS011;48554;50.766;2.900;2022-07-24T03:07:11;5.07;;;2.40;;
60853;SDS011;48554;50.766;2.900;2022-07-24T03:09:31;7.00;;;2.83;;
60853;SDS011;48554;50.766;2.900;2022-07-24T03:11:51;5.60;;;2.13;;
60853;SDS011;48554;50.766;2.900;2022-07-24T03:14:11;6.67;;;2.47;;
60853;SDS011;48554;50.766;2.900;2022-07-24T03:16:32;5.50;;;2.07;;
60853;SDS011;48554;50.766;2.900;2022-07-24T03:18:52;3.80;;;2.13;;
60853;SDS011;48554;50.766;2.900;2022-07-24T03:21:12;6.70;;;2.40;;
60853;SDS011;48554;50.766;2.900;2022-07-24T03:23:33;6.43;;;2.70;;
60853;SDS011;48554;50.766;2.900;2022-07-24T03:25:53;4.60;;;2.53;;
60853;SDS011;48554;50.766;2.900;2022-07-24T03:28:13;6.23;;;2.83;;
60853;SDS011;48554;50.766;2.900;2022-07-24T03:30:33;6.10;;;2.40;;
60853;SDS011;48554;50.766;2.900;2022-07-24T03:32:54;4.80;;;2.40;;
60853;SDS011;48554;50.766;2.900;2022-07-24T03:35:14;5.23;;;2.63;;
60853;SDS011;48554;50.766;2.900;2022-07-24T03:37:35;4.30;;;2.30;;
60853;SDS011;48554;50.766;2.900;2022-07-24T03:39:55;5.10;;;2.37;;
60853;SDS011;48554;50.766;2.900;2022-07-24T03:42:15;5.83;;;2.50;;
60853;SDS011;48554;50.766;2.900;2022-07-24T03:44:36;4.50;;;2.20;;
60853;SDS011;48554;50.766;2.900;2022-07-24T03:46:56;5.60;;;2.53;;
60853;SDS011;48554;50.766;2.900;2022-07-24T03:49:16;4.50;;;1.97;;
60853;SDS011;48554;50.766;2.900;2022-07-24T03:51:37;6.97;;;2.50;;
60853;SDS011;48554;50.766;2.900;2022-07-24T03:53:57;6.33;;;3.03;;
60853;SDS011;48554;50.766;2.900;2022-07-24T03:56:18;7.60;;;2.57;;
60853;SDS011;48554;50.766;2.900;2022-07-24T03:58:38;6.30;;;2.63;;
60853;SDS011;48554;50.766;2.900;2022-07-24T04:00:58;5.80;;;2.13;;
60853;SDS011;48554;50.766;2.900;2022-07-24T04:03:19;7.53;;;2.47;;
60853;SDS011;48554;50.766;2.900;2022-07-24T04:05:39;6.27;;;2.70;;
60853;SDS011;48554;50.766;2.900;2022-07-24T04:07:59;4.57;;;2.27;;
60853;SDS011;48554;50.766;2.900;2022-07-24T04:10:19;7.07;;;2.77;;
60853;SDS011;48554;50.766;2.900;2022-07-24T04:12:40;8.07;;;3.67;;
60853;SDS011;48554;50.766;2.900;2022-07-24T04:15:00;7.90;;;2.70;;
60853;SDS011;48554;50.766;2.900;2022-07-24T04:17:20;6.37;;;2.40;;
60853;SDS011;48554;50.766;2.900;2022-07-24T04:19:41;5.63;;;2.40;;
60853;SDS011;48554;50.766;2.900;2022-07-24T04:22:01;4.83;;;2.40;;
60853;SDS011;48554;50.766;2.900;2022-07-24T04:24:21;6.03;;;2.60;;
60853;SDS011;48554;50.766;2.900;2022-07-24T04:26:41;7.83;;;2.80;;
60853;SDS011;48554;50.766;2.900;2022-07-24T04:29:02;6.77;;;2.73;;
60853;SDS011;48554;50.766;2.900;2022-07-24T04:31:22;7.60;;;2.87;;
60853;SDS011;48554;50.766;2.900;2022-07-24T04:33:43;7.57;;;2.23;;
60853;SDS011;48554;50.766;2.900;2022-07-24T04:36:04;6.97;;;2.78;;
60853;SDS011;48554;50.766;2.900;2022-07-24T04:38:25;5.13;;;2.45;;
60853;SDS011;48554;50.766;2.900;2022-07-24T04:40:45;6.03;;;2.80;;
60853;SDS011;48554;50.766;2.900;2022-07-24T04:43:05;5.30;;;2.63;;
60853;SDS011;48554;50.766;2.900;2022-07-24T04:45:26;6.77;;;2.80;;
60853;SDS011;48554;50.766;2.900;2022-07-24T04:47:46;4.80;;;2.67;;
60853;SDS011;48554;50.766;2.900;2022-07-24T04:50:07;4.63;;;2.37;;
60853;SDS011;48554;50.766;2.900;2022-07-24T04:52:28;8.20;;;2.92;;
60853;SDS011;48554;50.766;2.900;2022-07-24T04:54:48;6.43;;;2.70;;
60853;SDS011;48554;50.766;2.900;2022-07-24T04:57:08;6.53;;;3.47;;
60853;SDS011;48554;50.766;2.900;2022-07-24T04:59:28;4.70;;;2.63;;
60853;SDS011;48554;50.766;2.900;2022-07-24T05:01:49;5.87;;;2.67;;
60853;SDS011;48554;50.766;2.900;2022-07-24T05:04:09;7.50;;;3.10;;
60853;SDS011;48554;50.766;2.900;2022-07-24T05:06:30;6.77;;;3.10;;
60853;SDS011;48554;50.766;2.900;2022-07-24T05:08:50;7.00;;;2.70;;
60853;SDS011;48554;50.766;2.900;2022-07-24T05:11:11;6.37;;;2.90;;
60853;SDS011;48554;50.766;2.900;2022-07-24T05:13:31;6.30;;;2.83;;
60853;SDS011;48554;50.766;2.900;2022-07-24T05:15:52;4.75;;;2.60;;
60853;SDS011;48554;50.766;2.900;2022-07-24T05:18:12;6.53;;;2.77;;
60853;SDS011;48554;50.766;2.900;2022-07-24T05:20:33;6.00;;;2.60;;
60853;SDS011;48554;50.766;2.900;2022-07-24T05:22:53;5.10;;;2.47;;
60853;SDS011;48554;50.766;2.900;2022-07-24T05:25:13;5.50;;;2.67;;
60853;SDS011;48554;50.766;2.900;2022-07-24T05:27:34;6.77;;;2.90;;
60853;SDS011;48554;50.766;2.900;2022-07-24T05:29:54;5.77;;;2.67;;
60853;SDS011;48554;50.766;2.900;2022-07-24T05:32:15;10.17;;;3.03;;
60853;SDS011;48554;50.766;2.900;2022-07-24T05:34:35;4.97;;;2.80;;
60853;SDS011;48554;50.766;2.900;2022-07-24T05:36:55;7.80;;;3.10;;
60853;SDS011;48554;50.766;2.900;2022-07-24T05:39:16;7.07;;;2.73;;
60853;SDS011;48554;50.766;2.900;2022-07-24T05:41:36;9.43;;;3.10;;
60853;SDS011;48554;50.766;2.900;2022-07-24T05:43:56;6.67;;;3.17;;
60853;SDS011;48554;50.766;2.900;2022-07-24T05:46:17;4.80;;;2.60;;
60853;SDS011;48554;50.766;2.900;2022-07-24T05:48:37;5.30;;;3.00;;
60853;SDS011;48554;50.766;2.900;2022-07-24T05:50:57;6.37;;;2.90;;
60853;SDS011;48554;50.766;2.900;2022-07-24T05:53:18;6.93;;;3.23;;
60853;SDS011;48554;50.766;2.900;2022-07-24T05:55:38;5.60;;;2.93;;
60853;SDS011;48554;50.766;2.900;2022-07-24T05:57:58;6.83;;;2.70;;
60853;SDS011;48554;50.766;2.900;2022-07-24T06:00:19;7.97;;;3.47;;
60853;SDS011;48554;50.766;2.900;2022-07-24T06:02:39;5.73;;;3.00;;
60853;SDS011;48554;50.766;2.900;2022-07-24T06:04:59;6.80;;;3.00;;
60853;SDS011;48554;50.766;2.900;2022-07-24T06:07:19;5.90;;;2.80;;
60853;SDS011;48554;50.766;2.900;2022-07-24T06:09:40;5.53;;;2.80;;
60853;SDS011;48554;50.766;2.900;2022-07-24T06:12:00;7.20;;;2.90;;
60853;SDS011;48554;50.766;2.900;2022-07-24T06:14:20;6.63;;;2.70;;
60853;SDS011;48554;50.766;2.900;2022-07-24T06:16:41;8.03;;;2.90;;
60853;SDS011;48554;50.766;2.900;2022-07-24T06:19:01;6.37;;;2.90;;
60853;SDS011;48554;50.766;2.900;2022-07-24T06:21:21;5.73;;;2.80;;
60853;SDS011;48554;50.766;2.900;2022-07-24T06:23:42;6.70;;;3.10;;
60853;SDS011;48554;50.766;2.900;2022-07-24T06:26:02;5.70;;;2.90;;
60853;SDS011;48554;50.766;2.900;2022-07-24T06:28:22;5.80;;;2.53;;
60853;SDS011;48554;50.766;2.900;2022-07-24T06:30:42;6.40;;;2.80;;
60853;SDS011;48554;50.766;2.900;2022-07-24T06:33:03;3.87;;;2.40;;
60853;SDS011;48554;50.766;2.900;2022-07-24T06:35:24;6.07;;;3.07;;
60853;SDS011;48554;50.766;2.900;2022-07-24T06:37:44;7.68;;;2.90;;
60853;SDS011;48554;50.766;2.900;2022-07-24T06:40:05;6.57;;;2.90;;
60853;SDS011;48554;50.766;2.900;2022-07-24T06:42:26;7.03;;;2.90;;
60853;SDS011;48554;50.766;2.900;2022-07-24T06:44:46;7.33;;;2.83;;
60853;SDS011;48554;50.766;2.900;2022-07-24T06:47:06;5.83;;;2.67;;
60853;SDS011;48554;50.766;2.900;2022-07-24T06:49:27;5.77;;;2.63;;
60853;SDS011;48554;50.766;2.900;2022-07-24T06:51:47;5.40;;;2.80;;
60853;SDS011;48554;50.766;2.900;2022-07-24T06:54:07;6.80;;;2.67;;
60853;SDS011;48554;50.766;2.900;2022-07-24T06:56:27;8.10;;;2.87;;
60853;SDS011;48554;50.766;2.900;2022-07-24T06:58:48;9.23;;;2.93;;
60853;SDS011;48554;50.766;2.900;2022-07-24T07:01:08;6.17;;;2.60;;
60853;SDS011;48554;50.766;2.900;2022-07-24T07:03:28;6.10;;;2.57;;
60853;SDS011;48554;50.766;2.900;2022-07-24T07:05:49;5.87;;;2.37;;
60853;SDS011;48554;50.766;2.900;2022-07-24T07:08:09;5.53;;;2.40;;
60853;SDS011;48554;50.766;2.900;2022-07-24T07:10:29;7.03;;;2.57;;
60853;SDS011;48554;50.766;2.900;2022-07-24T07:12:50;5.17;;;2.37;;
60853;SDS011;48554;50.766;2.900;2022-07-24T07:15:10;6.03;;;2.37;;
60853;SDS011;48554;50.766;2.900;2022-07-24T07:17:31;5.60;;;2.63;;
60853;SDS011;48554;50.766;2.900;2022-07-24T07:19:51;5.07;;;2.40;;
60853;SDS011;48554;50.766;2.900;2022-07-24T07:22:12;3.33;;;2.20;;
60853;SDS011;48554;50.766;2.900;2022-07-24T07:24:32;3.83;;;2.13;;
60853;SDS011;48554;50.766;2.900;2022-07-24T07:26:52;6.40;;;2.47;;
60853;SDS011;48554;50.766;2.900;2022-07-24T07:29:12;4.23;;;1.80;;
60853;SDS011;48554;50.766;2.900;2022-07-24T07:31:33;5.63;;;2.37;;
60853;SDS011;48554;50.766;2.900;2022-07-24T07:33:53;4.60;;;1.90;;
60853;SDS011;48554;50.766;2.900;2022-07-24T07:36:13;5.90;;;2.10;;
60853;SDS011;48554;50.766;2.900;2022-07-24T07:38:34;5.60;;;2.37;;
60853;SDS011;48554;50.766;2.900;2022-07-24T07:40:54;6.37;;;2.43;;
60853;SDS011;48554;50.766;2.900;2022-07-24T07:43:15;4.00;;;2.17;;
60853;SDS011;48554;50.766;2.900;2022-07-24T07:45:35;5.20;;;1.83;;
60853;SDS011;48554;50.766;2.900;2022-07-24T07:47:55;5.07;;;2.27;;
60853;SDS011;48554;50.766;2.900;2022-07-24T07:50:16;4.23;;;2.20;;
60853;SDS011;48554;50.766;2.900;2022-07-24T07:52:36;4.57;;;1.90;;
60853;SDS011;48554;50.766;2.900;2022-07-24T07:54:56;6.70;;;2.27;;
60853;SDS011;48554;50.766;2.900;2022-07-24T07:57:16;4.17;;;2.20;;
60853;SDS011;48554;50.766;2.900;2022-07-24T07:59:37;6.33;;;2.00;;
60853;SDS011;48554;50.766;2.900;2022-07-24T08:01:57;3.90;;;2.03;;
60853;SDS011;48554;50.766;2.900;2022-07-24T08:04:17;3.23;;;1.67;;
60853;SDS011;48554;50.766;2.900;2022-07-24T08:06:37;5.93;;;2.70;;
60853;SDS011;48554;50.766;2.900;2022-07-24T08:08:58;4.50;;;2.00;;
60853;SDS011;48554;50.766;2.900;2022-07-24T08:11:18;3.40;;;2.10;;
60853;SDS011;48554;50.766;2.900;2022-07-24T08:13:39;7.13;;;2.30;;
60853;SDS011;48554;50.766;2.900;2022-07-24T08:15:59;3.50;;;1.77;;
60853;SDS011;48554;50.766;2.900;2022-07-24T08:18:19;6.23;;;1.93;;
60853;SDS011;48554;50.766;2.900;2022-07-24T08:20:40;5.07;;;1.90;;
60853;SDS011;48554;50.766;2.900;2022-07-24T08:23:00;5.07;;;2.23;;
60853;SDS011;48554;50.766;2.900;2022-07-24T08:25:21;3.63;;;1.70;;
60853;SDS011;48554;50.766;2.900;2022-07-24T08:27:41;3.67;;;1.80;;
60853;SDS011;48554;50.766;2.900;2022-07-24T08:30:02;4.50;;;1.93;;
60853;SDS011;48554;50.766;2.900;2022-07-24T08:32:23;5.07;;;2.15;;
60853;SDS011;48554;50.766;2.900;2022-07-24T08:34:44;4.37;;;1.90;;
60853;SDS011;48554;50.766;2.900;2022-07-24T08:37:04;4.60;;;1.70;;
60853;SDS011;48554;50.766;2.900;2022-07-24T08:39:24;4.27;;;1.97;;
60853;SDS011;48554;50.766;2.900;2022-07-24T08:41:45;4.23;;;1.63;;
60853;SDS011;48554;50.766;2.900;2022-07-24T08:44:05;3.60;;;1.83;;
60853;SDS011;48554;50.766;2.900;2022-07-24T08:46:25;2.77;;;1.77;;
60853;SDS011;48554;50.766;2.900;2022-07-24T08:48:48;2.78;;;1.70;;
60853;SDS011;48554;50.766;2.900;2022-07-24T08:51:09;4.93;;;1.60;;
60853;SDS011;48554;50.766;2.900;2022-07-24T08:53:29;3.05;;;1.55;;
60853;SDS011;48554;50.766;2.900;2022-07-24T08:55:50;3.70;;;1.67;;
60853;SDS011;48554;50.766;2.900;2022-07-24T08:58:10;2.87;;;1.60;;
60853;SDS011;48554;50.766;2.900;2022-07-24T09:00:31;2.93;;;1.37;;
60853;SDS011;48554;50.766;2.900;2022-07-24T09:02:52;3.92;;;1.50;;
60853;SDS011;48554;50.766;2.900;2022-07-24T09:05:12;5.20;;;1.77;;
60853;SDS011;48554;50.766;2.900;2022-07-24T09:07:33;2.60;;;1.50;;
60853;SDS011;48554;50.766;2.900;2022-07-24T09:10:00;3.80;;;1.47;;
60853;SDS011;48554;50.766;2.900;2022-07-24T09:12:25;6.70;;;1.52;;
60853;SDS011;48554;50.766;2.900;2022-07-24T09:14:49;2.53;;;1.52;;
60853;SDS011;48554;50.766;2.900;2022-07-24T09:17:11;4.43;;;1.53;;
60853;SDS011;48554;50.766;2.900;2022-07-24T09:22:55;4.80;;;1.60;;
60853;SDS011;48554;50.766;2.900;2022-07-24T09:25:14;7.00;;;2.30;;
60853;SDS011;48554;50.766;2.900;2022-07-24T09:30:29;9.05;;;2.22;;
60853;SDS011;48554;50.766;2.900;2022-07-24T09:33:04;11.43;;;3.15;;
60853;SDS011;48554;50.766;2.900;2022-07-24T09:35:31;10.65;;;2.92;;
60853;SDS011;48554;50.766;2.900;2022-07-24T09:37:53;14.02;;;2.75;;
60853;SDS011;48554;50.766;2.900;2022-07-24T09:40:14;8.57;;;2.83;;
60853;SDS011;48554;50.766;2.900;2022-07-24T09:44:57;10.18;;;2.83;;
60853;SDS011;48554;50.766;2.900;2022-07-24T09:47:17;8.98;;;3.08;;
60853;SDS011;48554;50.766;2.900;2022-07-24T09:49:38;6.67;;;2.27;;
60853;SDS011;48554;50.766;2.900;2022-07-24T09:52:18;9.13;;;2.60;;
60853;SDS011;48554;50.766;2.900;2022-07-24T09:54:39;5.28;;;2.30;;
60853;SDS011;48554;50.766;2.900;2022-07-24T10:00:06;6.35;;;2.13;;
60853;SDS011;48554;50.766;2.900;2022-07-24T10:02:30;6.15;;;2.47;;
60853;SDS011;48554;50.766;2.900;2022-07-24T10:04:52;5.38;;;2.38;;
60853;SDS011;48554;50.766;2.900;2022-07-24T10:07:14;6.38;;;2.30;;
60853;SDS011;48554;50.766;2.900;2022-07-24T10:09:40;6.00;;;2.25;;
60853;SDS011;48554;50.766;2.900;2022-07-24T10:12:02;5.28;;;2.30;;
60853;SDS011;48554;50.766;2.900;2022-07-24T10:14:24;5.57;;;2.40;;
60853;SDS011;48554;50.766;2.900;2022-07-24T10:16:44;5.25;;;2.55;;
60853;SDS011;48554;50.766;2.900;2022-07-24T10:19:16;7.65;;;2.63;;
60853;SDS011;48554;50.766;2.900;2022-07-24T10:21:48;3.35;;;1.85;;
60853;SDS011;48554;50.766;2.900;2022-07-24T10:24:20;3.88;;;2.00;;
60853;SDS011;48554;50.766;2.900;2022-07-24T10:27:04;5.53;;;2.67;;
60853;SDS011;48554;50.766;2.900;2022-07-24T10:29:25;5.18;;;2.13;;
60853;SDS011;48554;50.766;2.900;2022-07-24T10:31:49;3.57;;;2.00;;
60853;SDS011;48554;50.766;2.900;2022-07-24T10:39:28;8.05;;;2.42;;
60853;SDS011;48554;50.766;2.900;2022-07-24T10:42:04;5.45;;;2.33;;
60853;SDS011;48554;50.766;2.900;2022-07-24T10:44:26;5.05;;;2.50;;
60853;SDS011;48554;50.766;2.900;2022-07-24T10:47:03;6.20;;;2.37;;
60853;SDS011;48554;50.766;2.900;2022-07-24T10:52:02;3.72;;;2.08;;
60853;SDS011;48554;50.766;2.900;2022-07-24T10:54:22;4.43;;;2.43;;
60853;SDS011;48554;50.766;2.900;2022-07-24T10:56:42;3.00;;;1.83;;
60853;SDS011;48554;50.766;2.900;2022-07-24T10:59:09;5.93;;;2.60;;
60853;SDS011;48554;50.766;2.900;2022-07-24T11:01:34;4.53;;;2.10;;
60853;SDS011;48554;50.766;2.900;2022-07-24T11:11:24;4.53;;;2.27;;
60853;SDS011;48554;50.766;2.900;2022-07-24T11:13:48;4.83;;;2.27;;
60853;SDS011;48554;50.766;2.900;2022-07-24T11:18:30;5.13;;;2.30;;
60853;SDS011;48554;50.766;2.900;2022-07-24T11:20:51;5.47;;;2.40;;
60853;SDS011;48554;50.766;2.900;2022-07-24T11:23:21;4.93;;;2.23;;
60853;SDS011;48554;50.766;2.900;2022-07-24T11:25:42;4.40;;;2.23;;
60853;SDS011;48554;50.766;2.900;2022-07-24T11:30:29;5.03;;;2.40;;
60853;SDS011;48554;50.766;2.900;2022-07-24T11:32:50;5.47;;;2.42;;
60853;SDS011;48554;50.766;2.900;2022-07-24T11:35:11;5.87;;;2.37;;
60853;SDS011;48554;50.766;2.900;2022-07-24T11:37:31;5.63;;;2.17;;
60853;SDS011;48554;50.766;2.900;2022-07-24T11:39:53;3.97;;;2.42;;
60853;SDS011;48554;50.766;2.900;2022-07-24T11:42:14;4.37;;;2.43;;
60853;SDS011;48554;50.766;2.900;2022-07-24T11:44:37;4.70;;;2.10;;
60853;SDS011;48554;50.766;2.900;2022-07-24T11:47:11;5.82;;;2.33;;
60853;SDS011;48554;50.766;2.900;2022-07-24T11:49:35;5.35;;;2.45;;
60853;SDS011;48554;50.766;2.900;2022-07-24T11:52:05;4.50;;;2.20;;
60853;SDS011;48554;50.766;2.900;2022-07-24T11:54:26;3.67;;;2.37;;
60853;SDS011;48554;50.766;2.900;2022-07-24T11:56:47;4.07;;;2.63;;
60853;SDS011;48554;50.766;2.900;2022-07-24T11:59:21;5.27;;;2.23;;
60853;SDS011;48554;50.766;2.900;2022-07-24T12:01:45;4.97;;;2.10;;
60853;SDS011;48554;50.766;2.900;2022-07-24T12:04:05;6.17;;;2.47;;
60853;SDS011;48554;50.766;2.900;2022-07-24T12:06:26;5.40;;;2.20;;
60853;SDS011;48554;50.766;2.900;2022-07-24T12:08:46;3.95;;;2.30;;
60853;SDS011;48554;50.766;2.900;2022-07-24T12:11:07;4.67;;;2.20;;
60853;SDS011;48554;50.766;2.900;2022-07-24T12:13:27;5.13;;;2.33;;
60853;SDS011;48554;50.766;2.900;2022-07-24T12:15:48;5.20;;;2.38;;
60853;SDS011;48554;50.766;2.900;2022-07-24T12:18:08;5.10;;;2.37;;
60853;SDS011;48554;50.766;2.900;2022-07-24T12:20:30;6.27;;;2.10;;
60853;SDS011;48554;50.766;2.900;2022-07-24T12:22:52;3.83;;;2.05;;
60853;SDS011;48554;50.766;2.900;2022-07-24T12:25:13;5.65;;;2.60;;
60853;SDS011;48554;50.766;2.900;2022-07-24T12:27:39;4.23;;;2.13;;
60853;SDS011;48554;50.766;2.900;2022-07-24T12:30:01;4.25;;;2.53;;
60853;SDS011;48554;50.766;2.900;2022-07-24T12:34:43;4.03;;;2.37;;
60853;SDS011;48554;50.766;2.900;2022-07-24T12:37:15;4.72;;;2.38;;
60853;SDS011;48554;50.766;2.900;2022-07-24T12:39:44;6.38;;;2.78;;
60853;SDS011;48554;50.766;2.900;2022-07-24T12:42:05;3.75;;;1.88;;
60853;SDS011;48554;50.766;2.900;2022-07-24T12:44:38;4.27;;;2.20;;
60853;SDS011;48554;50.766;2.900;2022-07-24T12:47:02;3.53;;;2.10;;
60853;SDS011;48554;50.766;2.900;2022-07-24T12:49:22;2.70;;;2.15;;
60853;SDS011;48554;50.766;2.900;2022-07-24T12:54:14;4.00;;;2.42;;
60853;SDS011;48554;50.766;2.900;2022-07-24T12:56:39;3.33;;;2.20;;
60853;SDS011;48554;50.766;2.900;2022-07-24T12:59:01;3.97;;;2.13;;
60853;SDS011;48554;50.766;2.900;2022-07-24T13:01:23;4.07;;;2.25;;
60853;SDS011;48554;50.766;2.900;2022-07-24T13:03:55;4.13;;;2.22;;
60853;SDS011;48554;50.766;2.900;2022-07-24T13:06:17;3.85;;;2.28;;
60853;SDS011;48554;50.766;2.900;2022-07-24T13:08:38;6.63;;;2.00;;
60853;SDS011;48554;50.766;2.900;2022-07-24T13:10:58;3.90;;;2.10;;
60853;SDS011;48554;50.766;2.900;2022-07-24T13:13:18;2.90;;;2.20;;
60853;SDS011;48554;50.766;2.900;2022-07-24T13:15:38;3.73;;;2.47;;
60853;SDS011;48554;50.766;2.900;2022-07-24T13:17:59;5.53;;;2.00;;
60853;SDS011;48554;50.766;2.900;2022-07-24T13:20:19;8.17;;;2.27;;
60853;SDS011;48554;50.766;2.900;2022-07-24T13:22:39;4.57;;;2.17;;
60853;SDS011;48554;50.766;2.900;2022-07-24T13:24:59;3.90;;;2.10;;
60853;SDS011;48554;50.766;2.900;2022-07-24T13:27:20;3.80;;;1.87;;
60853;SDS011;48554;50.766;2.900;2022-07-24T13:29:40;5.63;;;2.07;;
60853;SDS011;48554;50.766;2.900;2022-07-24T13:32:01;3.93;;;2.23;;
60853;SDS011;48554;50.766;2.900;2022-07-24T13:34:22;3.40;;;2.00;;
60853;SDS011;48554;50.766;2.900;2022-07-24T13:36:43;3.40;;;2.23;;
60853;SDS011;48554;50.766;2.900;2022-07-24T13:39:05;3.63;;;2.13;;
60853;SDS011;48554;50.766;2.900;2022-07-24T13:41:27;4.72;;;2.40;;
60853;SDS011;48554;50.766;2.900;2022-07-24T13:43:48;4.13;;;2.20;;
60853;SDS011;48554;50.766;2.900;2022-07-24T13:46:09;5.07;;;2.60;;
60853;SDS011;48554;50.766;2.900;2022-07-24T13:48:30;5.27;;;2.30;;
60853;SDS011;48554;50.766;2.900;2022-07-24T13:50:50;4.00;;;2.40;;
60853;SDS011;48554;50.766;2.900;2022-07-24T13:53:10;5.07;;;2.60;;
60853;SDS011;48554;50.766;2.900;2022-07-24T13:55:31;3.73;;;2.57;;
60853;SDS011;48554;50.766;2.900;2022-07-24T13:57:51;4.33;;;2.60;;
60853;SDS011;48554;50.766;2.900;2022-07-24T14:00:12;5.70;;;2.50;;
60853;SDS011;48554;50.766;2.900;2022-07-24T14:02:32;4.68;;;2.58;;
60853;SDS011;48554;50.766;2.900;2022-07-24T14:04:53;7.07;;;2.60;;
60853;SDS011;48554;50.766;2.900;2022-07-24T14:07:13;5.13;;;3.03;;
60853;SDS011;48554;50.766;2.900;2022-07-24T14:09:33;6.20;;;2.77;;
60853;SDS011;48554;50.766;2.900;2022-07-24T14:11:54;4.60;;;2.50;;
60853;SDS011;48554;50.766;2.900;2022-07-24T14:14:14;6.30;;;3.00;;
60853;SDS011;48554;50.766;2.900;2022-07-24T14:16:34;7.00;;;3.03;;
60853;SDS011;48554;50.766;2.900;2022-07-24T14:18:55;9.20;;;3.10;;
60853;SDS011;48554;50.766;2.900;2022-07-24T14:21:15;7.27;;;3.23;;
60853;SDS011;48554;50.766;2.900;2022-07-24T14:23:35;7.10;;;3.30;;
60853;SDS011;48554;50.766;2.900;2022-07-24T14:25:55;6.37;;;2.90;;
60853;SDS011;48554;50.766;2.900;2022-07-24T14:28:16;4.77;;;2.70;;
60853;SDS011;48554;50.766;2.900;2022-07-24T14:30:36;7.07;;;3.07;;
60853;SDS011;48554;50.766;2.900;2022-07-24T14:32:56;8.70;;;3.30;;
60853;SDS011;48554;50.766;2.900;2022-07-24T14:35:16;8.27;;;3.03;;
60853;SDS011;48554;50.766;2.900;2022-07-24T14:37:37;6.90;;;3.20;;
60853;SDS011;48554;50.766;2.900;2022-07-24T14:39:57;8.03;;;3.43;;
60853;SDS011;48554;50.766;2.900;2022-07-24T14:42:18;6.47;;;3.30;;
60853;SDS011;48554;50.766;2.900;2022-07-24T14:44:38;5.00;;;2.93;;
60853;SDS011;48554;50.766;2.900;2022-07-24T14:46:58;5.47;;;3.20;;
60853;SDS011;48554;50.766;2.900;2022-07-24T14:49:18;5.60;;;3.23;;
60853;SDS011;48554;50.766;2.900;2022-07-24T14:51:39;4.47;;;2.83;;